Time;durP1;ratioP1;P1;durP2;ratioP2;P2;SDS_P1;SDS_P2;PMS_P1;PMS_P2;Temp;Humidity;BMP_temperature;BMP_pressure;BME280_temperature;BME280_humidity;BME280_pressure;Samples;Min_cycle;Max_cycle;Signal;HPM_P1;HPM_P2
2022/01/25 00:24:30;;;;;;;6.38;5.78;;;18.60;50.30;;;;;;5067831;28;20447;-64
2022/01/25 00:27:36;;;;;;;5.85;5.30;;;18.60;50.30;;;;;;5067802;28;20510;-64
2022/01/25 00:32:09;;;;;;;6.43;5.55;;;18.60;50.30;;;;;;5070862;28;20074;-64
2022/01/25 00:34:35;;;;;;;7.63;6.10;;;18.60;50.20;;;;;;5066606;28;20029;-64
2022/01/25 00:37:00;;;;;;;6.90;6.20;;;18.60;50.20;;;;;;5063491;28;20388;-64
2022/01/25 00:39:26;;;;;;;6.00;5.40;;;18.60;50.30;;;;;;5039034;28;20064;-64
2022/01/25 00:41:52;;;;;;;6.25;5.65;;;18.60;50.20;;;;;;5071859;28;20034;-64
2022/01/25 00:44:17;;;;;;;6.55;5.88;;;18.60;50.10;;;;;;5076881;28;20119;-64
2022/01/25 00:46:43;;;;;;;7.13;5.88;;;18.50;50.10;;;;;;5069385;28;20055;-64
2022/01/25 00:49:11;;;;;;;6.72;5.78;;;18.50;50.00;;;;;;5063313;28;20024;-64
2022/01/25 00:52:05;;;;;;;7.38;5.72;;;18.50;50.00;;;;;;5068061;28;20437;-64
2022/01/25 00:56:50;;;;;;;6.65;5.90;;;18.50;50.00;;;;;;5069770;28;20025;-64
2022/01/25 00:59:24;;;;;;;5.95;5.20;;;18.50;50.00;;;;;;5076647;28;20040;-64
2022/01/25 01:01:53;;;;;;;6.80;6.10;;;18.50;50.00;;;;;;5075582;28;20036;-64
2022/01/25 01:04:19;;;;;;;7.25;6.30;;;18.50;49.90;;;;;;5058473;28;20044;-64
2022/01/25 01:06:46;;;;;;;6.15;5.43;;;18.50;49.90;;;;;;5056427;28;20442;-64
2022/01/25 01:09:13;;;;;;;6.70;6.00;;;18.50;50.00;;;;;;5057398;28;20028;-65
2022/01/25 01:11:47;;;;;;;7.03;6.32;;;18.50;49.90;;;;;;5075587;28;20057;-64
2022/01/25 01:17:18;;;;;;;6.40;5.72;;;18.40;49.80;;;;;;5060204;28;20116;-64
2022/01/25 01:31:20;;;;;;;6.97;5.93;;;18.30;49.80;;;;;;5074812;28;20506;-64
2022/01/25 01:33:57;;;;;;;7.00;6.20;;;18.30;49.80;;;;;;5068497;28;20041;-64
2022/01/25 01:44:00;;;;;;;7.07;6.15;;;18.20;49.80;;;;;;5076333;28;20036;-64
2022/01/25 01:46:39;;;;;;;6.75;6.05;;;18.30;49.80;;;;;;5072276;28;20041;-64
2022/01/25 01:49:06;;;;;;;7.03;6.00;;;18.20;49.80;;;;;;5043632;28;20699;-64
2022/01/25 01:51:36;;;;;;;7.03;6.13;;;18.30;49.80;;;;;;5074762;28;20115;-64
2022/01/25 01:54:06;;;;;;;7.07;6.22;;;18.30;49.70;;;;;;5074943;28;20017;-64
2022/01/25 01:56:33;;;;;;;7.25;6.03;;;18.30;49.70;;;;;;5067647;28;20504;-63
2022/01/25 01:59:01;;;;;;;7.03;6.18;;;18.20;49.70;;;;;;5073057;28;20059;-64
2022/01/25 02:01:28;;;;;;;7.53;6.53;;;18.30;49.70;;;;;;5073954;28;20058;-64
2022/01/25 02:03:55;;;;;;;9.23;6.75;;;18.20;49.60;;;;;;5072617;28;20108;-64
2022/01/25 02:06:22;;;;;;;8.90;6.50;;;18.30;49.60;;;;;;5061926;28;20037;-64
2022/01/25 02:08:48;;;;;;;6.88;6.18;;;18.20;49.50;;;;;;5060852;28;20044;-64
2022/01/25 02:11:15;;;;;;;8.35;6.28;;;18.20;49.60;;;;;;5063319;28;20614;-64
2022/01/25 02:13:42;;;;;;;7.55;6.60;;;18.20;49.50;;;;;;5066363;28;20377;-64
2022/01/25 02:16:18;;;;;;;7.75;6.55;;;18.20;49.50;;;;;;5074552;28;20024;-64
2022/01/25 02:24:12;;;;;;;8.98;6.95;;;18.10;49.40;;;;;;5073202;28;20182;-64
2022/01/25 02:26:37;;;;;;;8.48;6.53;;;18.10;49.40;;;;;;5052075;28;20123;-64
2022/01/25 02:29:03;;;;;;;9.45;6.80;;;18.10;49.40;;;;;;5074850;28;20027;-64
2022/01/25 02:31:29;;;;;;;8.07;6.80;;;18.10;49.40;;;;;;5059669;28;20029;-64
2022/01/25 02:33:54;;;;;;;8.23;6.85;;;18.10;49.40;;;;;;5049225;28;20036;-64
2022/01/25 02:36:26;;;;;;;7.57;6.60;;;18.10;49.40;;;;;;5055547;28;20037;-64
2022/01/25 02:38:52;;;;;;;8.50;6.50;;;18.10;49.40;;;;;;5059242;28;20031;-64
2022/01/25 02:41:18;;;;;;;12.60;7.15;;;18.10;49.40;;;;;;5067500;28;20033;-64
2022/01/25 02:43:46;;;;;;;8.45;6.85;;;18.10;49.40;;;;;;5063309;28;20024;-64
2022/01/25 02:48:50;;;;;;;8.75;7.03;;;18.10;49.30;;;;;;5074891;28;20108;-64
2022/01/25 02:51:16;;;;;;;8.82;6.70;;;18.10;49.30;;;;;;5070998;28;20075;-64
2022/01/25 02:53:41;;;;;;;8.93;7.25;;;18.00;49.40;;;;;;5073627;28;20479;-64
2022/01/25 02:56:07;;;;;;;8.80;6.80;;;18.00;49.30;;;;;;5072235;28;20041;-65
2022/01/25 02:58:32;;;;;;;8.48;6.95;;;18.00;49.30;;;;;;5073364;28;20431;-65
2022/01/25 03:00:58;;;;;;;9.35;7.10;;;18.00;49.30;;;;;;5069097;28;20033;-65
2022/01/25 03:03:24;;;;;;;9.00;7.28;;;18.00;49.20;;;;;;5059474;28;20072;-64
2022/01/25 03:05:49;;;;;;;8.30;6.50;;;18.00;49.30;;;;;;5064987;28;20068;-64
2022/01/25 03:08:15;;;;;;;8.65;7.05;;;18.00;49.20;;;;;;5073633;28;20078;-64
2022/01/25 03:10:44;;;;;;;8.85;7.35;;;18.00;49.30;;;;;;5058239;28;20441;-64
2022/01/25 03:13:19;;;;;;;10.25;7.45;;;18.00;49.20;;;;;;5066231;28;20508;-64
2022/01/25 03:18:36;;;;;;;8.50;7.03;;;17.90;49.20;;;;;;5036758;28;20029;-64
2022/01/25 03:21:48;;;;;;;8.52;7.10;;;17.90;49.20;;;;;;5067541;28;20484;-65
2022/01/25 03:23:50;;;;;;;8.70;7.53;;;17.90;49.20;;;;;;5052900;28;20480;-64
2022/01/25 03:26:16;;;;;;;9.35;6.80;;;17.90;49.20;;;;;;5070932;28;20081;-64
2022/01/25 03:28:42;;;;;;;9.32;7.20;;;17.90;49.20;;;;;;5068026;28;20040;-65
2022/01/25 03:31:08;;;;;;;8.80;6.82;;;17.90;49.20;;;;;;5072917;28;20025;-65
2022/01/25 03:33:34;;;;;;;9.02;6.78;;;17.90;49.10;;;;;;5055461;28;20033;-65
2022/01/25 03:36:00;;;;;;;10.10;6.80;;;17.90;49.10;;;;;;5055855;28;20071;-65
2022/01/25 03:38:26;;;;;;;9.13;7.40;;;17.80;49.10;;;;;;5065500;28;20407;-64
2022/01/25 03:40:51;;;;;;;9.80;7.38;;;17.80;49.00;;;;;;5068558;28;20036;-64
2022/01/25 03:43:19;;;;;;;9.55;7.60;;;17.80;49.10;;;;;;5054943;28;20025;-65
2022/01/25 03:45:57;;;;;;;8.55;7.22;;;17.80;49.10;;;;;;5065268;28;20471;-64
2022/01/25 03:50:50;;;;;;;9.68;7.57;;;17.80;49.10;;;;;;5065300;28;20040;-64
2022/01/25 03:53:18;;;;;;;9.23;7.03;;;17.80;49.10;;;;;;5053716;28;20017;-64
2022/01/25 03:55:45;;;;;;;9.40;7.18;;;17.80;49.10;;;;;;5069532;28;20106;-64
2022/01/25 03:58:11;;;;;;;8.82;7.18;;;17.80;49.10;;;;;;5071973;28;20028;-65
2022/01/25 04:00:38;;;;;;;10.00;7.88;;;17.80;49.00;;;;;;5068217;28;20056;-65
2022/01/25 04:03:32;;;;;;;9.68;7.50;;;17.80;49.00;;;;;;5065661;28;20036;-65
2022/01/25 04:05:52;;;;;;;8.48;7.07;;;17.80;49.10;;;;;;5061757;28;20546;-65
2022/01/25 04:08:19;;;;;;;9.25;7.20;;;17.70;49.00;;;;;;5059090;28;20074;-65
2022/01/25 04:10:46;;;;;;;10.30;7.57;;;17.70;49.10;;;;;;5069385;28;20048;-65
2022/01/25 04:13:12;;;;;;;8.90;7.50;;;17.70;49.00;;;;;;5050692;28;20029;-64
2022/01/25 04:15:44;;;;;;;9.85;7.28;;;17.70;48.90;;;;;;5068997;28;20032;-64
2022/01/25 04:18:26;;;;;;;;;;;17.70;49.00;;;;;;5062433;28;20020;-65
2022/01/25 04:21:22;;;;;;;10.07;7.40;;;17.70;48.90;;;;;;5059897;28;19912;-64
2022/01/25 04:26:32;;;;;;;9.85;7.10;;;17.60;49.30;;;;;;5071742;28;20043;-64
2022/01/25 04:28:58;;;;;;;8.75;6.80;;;17.60;49.20;;;;;;5069751;28;20033;-64
2022/01/25 04:31:23;;;;;;;10.52;7.70;;;17.60;49.10;;;;;;5068564;28;20151;-64
2022/01/25 04:50:09;;;;;;;11.02;7.80;;;17.50;50.00;;;;;;5054816;28;20056;-65
2022/01/25 04:52:47;;;;;;;9.88;7.80;;;17.50;49.00;;;;;;5059161;28;20060;-65
2022/01/25 04:55:21;;;;;;;10.50;8.05;;;17.50;49.10;;;;;;5044524;28;20040;-65
2022/01/25 04:58:00;;;;;;;9.65;7.25;;;17.50;49.00;;;;;;5072792;28;20079;-65
2022/01/25 05:00:27;;;;;;;10.13;7.88;;;17.50;49.00;;;;;;5071868;28;20112;-65
2022/01/25 05:03:19;;;;;;;10.73;7.90;;;17.50;49.00;;;;;;5070649;28;20028;-65
2022/01/25 05:05:53;;;;;;;9.88;7.60;;;17.50;49.00;;;;;;5061414;28;20472;-65
2022/01/25 05:08:30;;;;;;;10.02;7.45;;;17.50;49.00;;;;;;5057768;28;20357;-65
2022/01/25 05:11:10;;;;;;;9.95;8.20;;;17.50;49.00;;;;;;5058973;28;20026;-64
2022/01/25 05:14:12;;;;;;;9.77;7.78;;;17.50;48.90;;;;;;5061354;28;20025;-65
2022/01/25 05:16:34;;;;;;;10.30;7.68;;;17.50;48.90;;;;;;5055930;28;20417;-65
2022/01/25 05:24:13;;;;;;;12.23;7.82;;;17.50;48.90;;;;;;5074731;28;20074;-65
2022/01/25 05:26:38;;;;;;;9.80;7.40;;;17.40;48.90;;;;;;5064295;28;20029;-65
2022/01/25 05:29:04;;;;;;;11.10;8.10;;;17.40;48.80;;;;;;5065787;28;20040;-65
2022/01/25 05:31:29;;;;;;;10.98;8.38;;;17.40;48.80;;;;;;5067860;28;20036;-65
2022/01/25 05:33:55;;;;;;;10.18;7.55;;;17.40;48.90;;;;;;5067129;28;20063;-65
2022/01/25 05:36:21;;;;;;;10.85;8.27;;;17.40;48.80;;;;;;5070741;28;20028;-65
2022/01/25 05:38:47;;;;;;;11.30;7.95;;;17.40;48.80;;;;;;5061682;28;20399;-65
2022/01/25 05:41:14;;;;;;;11.88;7.93;;;17.40;48.80;;;;;;5050764;28;20115;-65
2022/01/25 05:46:43;;;;;;;10.00;7.20;;;17.40;48.80;;;;;;5068888;28;20064;-65
2022/01/25 05:49:08;;;;;;;11.05;8.07;;;17.40;48.80;;;;;;5074906;28;20107;-65
2022/01/25 05:51:34;;;;;;;10.20;7.93;;;17.40;48.80;;;;;;5061341;28;20443;-65
2022/01/25 05:53:59;;;;;;;9.38;7.57;;;17.40;48.80;;;;;;5068091;28;20467;-65
2022/01/25 05:56:25;;;;;;;10.00;7.97;;;17.40;48.80;;;;;;5066808;28;20044;-65
2022/01/25 05:58:50;;;;;;;11.20;8.30;;;17.40;48.80;;;;;;5071963;28;20127;-65
2022/01/25 06:01:18;;;;;;;9.70;8.07;;;17.40;48.80;;;;;;5063911;28;20040;-65
2022/01/25 06:03:45;;;;;;;10.02;7.75;;;17.40;48.80;;;;;;5074580;28;20020;-65
2022/01/25 06:06:11;;;;;;;10.45;8.30;;;17.40;48.70;;;;;;5061258;28;20430;-65
2022/01/25 06:08:37;;;;;;;11.82;8.55;;;17.40;48.70;;;;;;5062567;28;20021;-65
2022/01/25 06:11:03;;;;;;;11.55;8.55;;;17.30;48.70;;;;;;5058966;28;20040;-65
2022/01/25 06:13:29;;;;;;;9.90;8.15;;;17.30;49.70;;;;;;5055349;28;20048;-65
2022/01/25 06:15:55;;;;;;;10.65;7.82;;;17.30;48.70;;;;;;5045176;28;20060;-65
2022/01/25 06:18:20;;;;;;;9.82;7.30;;;17.30;48.60;;;;;;5061452;28;20037;-65
2022/01/25 06:20:46;;;;;;;12.00;8.50;;;17.30;48.70;;;;;;5063247;28;20045;-65
2022/01/25 06:23:12;;;;;;;10.65;8.05;;;17.30;48.60;;;;;;5072503;28;20040;-65
2022/01/25 06:25:38;;;;;;;11.30;7.90;;;17.30;48.60;;;;;;5068605;28;20373;-65
2022/01/25 06:28:04;;;;;;;10.10;7.80;;;17.30;48.60;;;;;;5067730;28;20369;-65
2022/01/25 06:30:30;;;;;;;10.68;7.57;;;17.30;48.70;;;;;;5067175;28;20036;-65
2022/01/25 06:32:55;;;;;;;10.85;8.00;;;17.30;48.60;;;;;;5071542;28;20036;-65
2022/01/25 06:35:21;;;;;;;12.73;8.00;;;17.30;48.60;;;;;;5069631;28;20484;-65
2022/01/25 06:37:47;;;;;;;10.13;7.75;;;17.30;48.70;;;;;;5073450;28;20024;-65
2022/01/25 06:40:13;;;;;;;11.82;8.13;;;17.30;48.60;;;;;;5070857;28;20035;-65
2022/01/25 06:42:39;;;;;;;11.40;8.23;;;17.20;48.60;;;;;;5062561;28;20025;-65
2022/01/25 06:45:11;;;;;;;12.10;8.38;;;17.20;48.60;;;;;;5059749;28;20036;-65
2022/01/25 06:47:37;;;;;;;12.10;8.27;;;17.30;48.60;;;;;;5073806;28;20048;-65
2022/01/25 06:50:04;;;;;;;11.90;8.40;;;17.20;48.60;;;;;;5067167;28;20036;-65
2022/01/25 06:52:29;;;;;;;10.30;8.00;;;17.20;48.60;;;;;;5054897;28;20453;-65
2022/01/25 06:54:55;;;;;;;10.40;7.93;;;17.20;48.60;;;;;;5065806;28;20078;-65
2022/01/25 06:57:21;;;;;;;10.38;7.93;;;17.20;48.60;;;;;;5065786;28;20064;-65
2022/01/25 06:59:46;;;;;;;10.10;8.05;;;17.20;48.60;;;;;;5073548;28;20040;-65
2022/01/25 07:02:12;;;;;;;11.85;8.43;;;17.20;48.60;;;;;;5061897;28;20484;-65
2022/01/25 07:04:38;;;;;;;10.63;8.25;;;17.20;48.60;;;;;;5067579;28;20039;-65
2022/01/25 07:07:04;;;;;;;12.18;8.15;;;17.20;48.60;;;;;;5060139;28;20108;-65
2022/01/25 07:09:30;;;;;;;11.50;8.00;;;17.20;48.60;;;;;;5063678;28;20052;-65
2022/01/25 07:11:56;;;;;;;11.93;8.32;;;17.20;48.60;;;;;;5072980;28;20441;-65
2022/01/25 07:14:21;;;;;;;10.30;8.00;;;17.20;48.60;;;;;;5058163;28;20036;-65
2022/01/25 07:16:47;;;;;;;9.93;7.82;;;17.20;48.60;;;;;;5070673;28;20067;-65
2022/01/25 07:19:13;;;;;;;11.70;8.32;;;17.20;48.50;;;;;;5073970;28;20082;-65
2022/01/25 07:21:39;;;;;;;11.57;8.38;;;17.10;49.40;;;;;;5060654;28;21756;-65
2022/01/25 07:24:06;;;;;;;11.38;8.35;;;17.10;48.50;;;;;;5067812;28;20174;-65
2022/01/25 07:26:32;;;;;;;11.70;8.63;;;17.10;48.50;;;;;;5063649;28;20456;-66
2022/01/25 07:28:58;;;;;;;12.07;8.40;;;17.10;48.50;;;;;;5061462;28;20028;-66
2022/01/25 07:31:23;;;;;;;22.52;13.80;;;17.10;48.50;;;;;;5047863;28;20025;-65
2022/01/25 07:33:49;;;;;;;31.77;18.75;;;17.10;48.00;;;;;;5072936;28;20104;-64
2022/01/25 07:36:15;;;;;;;27.23;16.98;;;16.70;46.60;;;;;;5070078;28;20099;-65
2022/01/25 07:38:40;;;;;;;33.97;19.55;;;16.40;46.90;;;;;;5072681;28;20115;-65
2022/01/25 07:41:06;;;;;;;32.58;19.83;;;16.10;47.00;;;;;;5056971;28;20037;-65
2022/01/25 07:43:31;;;;;;;36.78;20.90;;;15.80;46.80;;;;;;5063606;28;20087;-65
2022/01/25 07:46:03;;;;;;;29.83;17.67;;;15.70;47.30;;;;;;5060497;28;20082;-66
2022/01/25 07:48:29;;;;;;;34.58;19.70;;;15.50;47.50;;;;;;5061103;28;20036;-65
2022/01/25 07:50:55;;;;;;;32.35;17.67;;;15.30;47.30;;;;;;5059601;28;20105;-65
2022/01/25 07:53:20;;;;;;;35.95;18.98;;;15.20;47.80;;;;;;5068869;28;20441;-65
2022/01/25 07:55:46;;;;;;;31.10;16.75;;;15.10;48.30;;;;;;5071817;28;20032;-65
2022/01/25 07:58:11;;;;;;;27.23;15.82;;;15.10;48.80;;;;;;5073534;28;20059;-65
2022/01/25 08:00:37;;;;;;;21.48;13.02;;;15.00;48.80;;;;;;5073743;28;20468;-65
2022/01/25 08:03:03;;;;;;;22.48;13.98;;;15.00;49.60;;;;;;5073762;28;20032;-64
2022/01/25 08:05:29;;;;;;;23.33;13.27;;;15.20;50.30;;;;;;5073457;28;20043;-65
2022/01/25 08:07:54;;;;;;;20.73;12.82;;;15.40;49.50;;;;;;5066387;28;20074;-65
2022/01/25 08:10:21;;;;;;;26.38;15.15;;;15.50;48.80;;;;;;5054227;28;20151;-65
2022/01/25 08:12:47;;;;;;;24.02;12.50;;;15.50;48.10;;;;;;5066396;28;20499;-64
2022/01/25 08:15:15;;;;;;;16.77;10.65;;;15.60;49.40;;;;;;5053205;28;20032;-64
2022/01/25 08:17:41;;;;;;;15.90;10.23;;;16.00;49.70;;;;;;5053418;28;20025;-67
2022/01/25 08:20:07;;;;;;;15.68;9.30;;;16.30;49.40;;;;;;5054777;28;20040;-68
2022/01/25 08:22:35;;;;;;;14.23;9.50;;;16.60;49.00;;;;;;5065887;28;20365;-68
2022/01/25 08:25:04;;;;;;;12.32;8.85;;;16.80;48.60;;;;;;5053292;28;20472;-68
2022/01/25 08:27:30;;;;;;;13.98;8.48;;;17.10;48.20;;;;;;5060821;28;20469;-67
2022/01/25 08:29:57;;;;;;;10.25;7.95;;;17.30;47.90;;;;;;5073422;28;20037;-67
2022/01/25 08:32:23;;;;;;;19.38;12.30;;;17.50;47.60;;;;;;5055058;28;20016;-67
2022/01/25 08:34:49;;;;;;;23.58;13.10;;;17.60;47.20;;;;;;5073246;28;20021;-67
2022/01/25 08:37:15;;;;;;;22.63;13.73;;;17.80;46.90;;;;;;5073259;28;20028;-67
2022/01/25 08:39:42;;;;;;;21.42;13.55;;;17.90;46.60;;;;;;5073252;28;20032;-67
2022/01/25 08:42:08;;;;;;;22.92;12.98;;;18.10;46.30;;;;;;5077092;28;20103;-67
2022/01/25 08:44:35;;;;;;;22.92;13.35;;;18.20;46.10;;;;;;5076680;28;20082;-68
2022/01/25 08:47:00;;;;;;;19.85;13.02;;;18.30;45.90;;;;;;5077080;28;20048;-67
2022/01/25 08:49:27;;;;;;;22.45;13.55;;;18.40;45.70;;;;;;5077034;28;20021;-67
2022/01/25 08:51:53;;;;;;;22.65;14.27;;;18.50;45.00;;;;;;5077162;28;20483;-66
2022/01/25 08:54:19;;;;;;;24.58;15.40;;;18.70;44.50;;;;;;5075901;28;20024;-65
2022/01/25 08:56:44;;;;;;;26.50;15.50;;;18.70;43.90;;;;;;5073168;28;20067;-65
2022/01/25 08:59:11;;;;;;;29.60;16.63;;;18.80;43.60;;;;;;5074683;28;20031;-65
2022/01/25 09:01:37;;;;;;;28.42;17.08;;;18.80;43.40;;;;;;5041989;28;20024;-66
2022/01/25 09:04:03;;;;;;;31.20;17.83;;;18.90;43.20;;;;;;5061323;28;20033;-67
2022/01/25 09:06:29;;;;;;;32.17;17.35;;;18.90;43.10;;;;;;5056675;28;20055;-67
2022/01/25 09:09:01;;;;;;;30.77;17.55;;;19.00;43.10;;;;;;5038784;28;20021;-67
2022/01/25 09:11:27;;;;;;;30.85;17.50;;;19.10;43.00;;;;;;5056903;28;20017;-67
2022/01/25 09:13:53;;;;;;;29.27;16.83;;;19.20;42.90;;;;;;5056494;28;20029;-67
2022/01/25 09:16:19;;;;;;;31.90;17.50;;;19.30;42.70;;;;;;5063802;28;20035;-67
2022/01/25 09:18:44;;;;;;;29.55;17.50;;;19.30;42.60;;;;;;5060682;28;20052;-67
2022/01/25 09:21:10;;;;;;;30.52;17.55;;;19.40;42.60;;;;;;5076423;28;20422;-68
2022/01/25 09:23:36;;;;;;;31.95;17.90;;;19.50;42.50;;;;;;5076246;28;20075;-68
2022/01/25 09:26:03;;;;;;;30.08;16.95;;;19.60;42.50;;;;;;5076100;28;20028;-68
2022/01/25 09:28:29;;;;;;;32.10;17.58;;;19.70;42.50;;;;;;5041948;28;20502;-68
2022/01/25 09:30:55;;;;;;;30.27;17.55;;;19.70;42.50;;;;;;5056043;28;20039;-68
2022/01/25 09:33:25;;;;;;;31.20;17.70;;;19.80;42.50;;;;;;5055931;28;20028;-68
2022/01/25 09:35:52;;;;;;;33.42;16.90;;;19.90;42.30;;;;;;5061464;28;20028;-66
2022/01/25 09:38:17;;;;;;;33.58;18.65;;;19.90;41.90;;;;;;5076368;28;20107;-65
2022/01/25 09:40:43;;;;;;;30.63;17.63;;;19.90;41.50;;;;;;5076289;28;20107;-66
2022/01/25 09:43:09;;;;;;;32.58;18.02;;;19.90;41.40;;;;;;5058319;28;20033;-66
2022/01/25 09:45:36;;;;;;;31.60;18.88;;;19.90;41.40;;;;;;5076261;28;20060;-66
2022/01/25 09:48:04;;;;;;;31.67;17.83;;;20.00;41.30;;;;;;5075447;28;20102;-67
2022/01/25 09:50:30;;;;;;;31.52;17.55;;;20.00;41.20;;;;;;5069099;28;20024;-66
2022/01/25 09:52:58;;;;;;;29.35;16.92;;;20.10;41.20;;;;;;5074975;28;20384;-67
2022/01/25 09:55:28;;;;;;;30.45;17.30;;;20.20;41.20;;;;;;5074798;28;20031;-65
2022/01/25 09:57:54;;;;;;;31.90;17.63;;;20.20;41.00;;;;;;5064195;28;20026;-66
2022/01/25 10:00:23;;;;;;;30.02;16.90;;;20.30;40.90;;;;;;5075914;28;20085;-66
2022/01/25 10:03:15;;;;;;;30.30;18.02;;;20.40;40.80;;;;;;5076068;28;20060;-66
2022/01/25 10:05:45;;;;;;;33.65;18.55;;;20.40;40.20;;;;;;5062363;28;20039;-67
2022/01/25 10:08:15;;;;;;;33.22;18.45;;;20.40;40.20;;;;;;5075629;28;20021;-66
2022/01/25 10:10:41;;;;;;;36.83;19.83;;;20.50;39.90;;;;;;5070790;28;20029;-66
2022/01/25 10:13:09;;;;;;;36.75;21.88;;;20.50;39.30;;;;;;5075596;28;20123;-66
2022/01/25 10:15:35;;;;;;;37.17;21.25;;;20.50;38.80;;;;;;5072845;28;20021;-67
2022/01/25 10:18:01;;;;;;;34.03;19.77;;;20.40;40.80;;;;;;5075434;28;20029;-65
2022/01/25 10:20:33;;;;;;;35.00;20.38;;;20.40;40.80;;;;;;5075115;28;20074;-67
2022/01/25 10:23:01;;;;;;;35.40;19.88;;;20.40;40.40;;;;;;5075395;28;20024;-66
2022/01/25 10:25:40;;;;;;;33.10;19.77;;;20.40;41.00;;;;;;5075252;28;20021;-66
2022/01/25 10:28:11;;;;;;;33.17;18.23;;;20.50;41.20;;;;;;5074839;28;20523;-67
2022/01/25 10:30:49;;;;;;;35.22;18.83;;;20.60;41.40;;;;;;5074027;28;20020;-66
2022/01/25 10:33:29;;;;;;;32.35;18.67;;;20.70;41.40;;;;;;5067166;28;20021;-63
2022/01/25 10:35:57;;;;;;;33.83;18.20;;;20.80;41.60;;;;;;5055098;28;20029;-65
2022/01/25 10:38:33;;;;;;;36.10;18.27;;;20.80;41.70;;;;;;5062474;28;20032;-64
2022/01/25 10:41:10;;;;;;;33.42;18.40;;;20.90;41.10;;;;;;5074831;28;20044;-65
2022/01/25 10:43:38;;;;;;;29.05;17.30;;;20.90;41.20;;;;;;5074578;28;20495;-64
2022/01/25 10:46:17;;;;;;;32.28;17.40;;;21.00;41.00;;;;;;5060976;28;20029;-64
2022/01/25 10:49:11;;;;;;;28.90;17.48;;;21.10;40.70;;;;;;5054775;28;20031;-66
2022/01/25 10:51:42;;;;;;;31.50;16.83;;;21.10;40.30;;;;;;5051957;28;20099;-66
2022/01/25 10:54:19;;;;;;;32.40;17.55;;;21.20;40.40;;;;;;5054676;28;20480;-66
2022/01/25 10:56:46;;;;;;;28.17;16.55;;;21.20;40.20;;;;;;5055512;28;20498;-65
2022/01/25 10:59:19;;;;;;;26.50;16.52;;;21.20;40.10;;;;;;5056612;28;20020;-66
2022/01/25 11:01:49;;;;;;;27.33;17.05;;;21.30;39.90;;;;;;5074759;28;20032;-66
2022/01/25 11:04:17;;;;;;;28.88;17.25;;;21.40;39.90;;;;;;5073285;28;20021;-66
2022/01/25 11:06:43;;;;;;;26.88;16.73;;;21.50;39.70;;;;;;5074243;28;20024;-66
2022/01/25 11:09:12;;;;;;;26.10;15.95;;;21.50;39.50;;;;;;5071849;28;20112;-65
2022/01/25 11:11:47;;;;;;;26.05;16.00;;;21.50;39.40;;;;;;5072427;28;20024;-67
2022/01/25 11:16:58;;;;;;;26.92;16.77;;;21.60;38.80;;;;;;5074719;28;20557;-68
2022/01/25 11:19:25;;;;;;;27.45;16.80;;;21.60;38.40;;;;;;5072407;28;20037;-64
2022/01/25 11:21:52;;;;;;;29.95;17.27;;;21.70;38.60;;;;;;5067053;28;20052;-64
2022/01/25 11:24:20;;;;;;;28.15;17.13;;;21.70;38.80;;;;;;5073699;28;20025;-64
2022/01/25 11:26:47;;;;;;;30.30;17.35;;;21.70;38.80;;;;;;5068896;28;20053;-64
2022/01/25 11:29:13;;;;;;;29.90;17.52;;;21.60;38.80;;;;;;5073827;28;20468;-67
2022/01/25 11:31:55;;;;;;;25.50;16.20;;;21.60;38.90;;;;;;5058375;28;20029;-66
2022/01/25 11:34:26;;;;;;;26.83;16.58;;;21.60;38.80;;;;;;5054902;28;20017;-64
2022/01/25 11:36:55;;;;;;;26.33;16.58;;;21.60;38.80;;;;;;5074008;28;20052;-65
2022/01/25 11:39:26;;;;;;;28.45;16.73;;;21.60;38.70;;;;;;5062075;28;20029;-65
2022/01/25 11:42:08;;;;;;;29.92;16.92;;;21.60;38.80;;;;;;5053781;28;20029;-65
2022/01/25 11:44:34;;;;;;;28.13;17.13;;;21.60;38.80;;;;;;5053610;28;20032;-65
2022/01/25 11:47:12;;;;;;;26.75;16.27;;;21.60;39.00;;;;;;5053465;28;20087;-67
2022/01/25 11:49:54;;;;;;;28.13;16.98;;;21.50;38.80;;;;;;5053732;28;20473;-67
2022/01/25 11:52:22;;;;;;;28.63;16.95;;;21.50;38.20;;;;;;5062828;28;20052;-66
2022/01/25 11:54:51;;;;;;;28.25;16.83;;;21.50;38.50;;;;;;5072752;28;20044;-65
2022/01/25 11:57:21;;;;;;;28.90;16.33;;;21.50;38.60;;;;;;5065470;28;20033;-65
2022/01/25 11:59:55;;;;;;;27.88;17.13;;;21.50;38.80;;;;;;5060574;28;20107;-66
2022/01/25 12:02:47;;;;;;;29.45;17.60;;;21.50;38.80;;;;;;5073523;28;20024;-64
2022/01/25 12:05:15;;;;;;;26.65;17.42;;;21.50;38.80;;;;;;5073561;28;20051;-65
2022/01/25 12:08:09;;;;;;;27.90;16.60;;;21.50;39.00;;;;;;5073923;28;20020;-65
2022/01/25 12:10:41;;;;;;;28.77;17.25;;;21.50;38.80;;;;;;5057541;28;20092;-64
2022/01/25 12:13:20;;;;;;;28.48;16.58;;;21.50;39.00;;;;;;5065840;28;20387;-65
2022/01/25 12:16:23;;;;;;;27.27;16.25;;;21.50;38.90;;;;;;5067525;28;20017;-66
2022/01/25 12:18:52;;;;;;;;;;;21.50;38.80;;;;;;5067845;28;20461;-68
2022/01/25 12:21:51;;;;;;;29.98;16.98;;;21.40;38.90;;;;;;5066640;28;20275;-68
2022/01/25 12:24:25;;;;;;;30.73;17.35;;;21.30;38.50;;;;;;5062397;28;20057;-68
2022/01/25 12:29:38;;;;;;;30.17;17.55;;;21.30;38.80;;;;;;5071009;28;20044;-68
2022/01/25 12:32:23;;;;;;;29.40;17.70;;;21.30;38.80;;;;;;5060643;28;20372;-68
2022/01/25 12:35:05;;;;;;;29.10;17.83;;;21.30;38.70;;;;;;5068810;28;20027;-68
2022/01/25 12:37:42;;;;;;;30.83;18.40;;;21.30;38.80;;;;;;5063625;28;20017;-68
2022/01/25 12:40:26;;;;;;;31.45;17.77;;;21.30;38.90;;;;;;5065932;28;20465;-68
2022/01/25 12:43:01;;;;;;;33.22;18.38;;;21.20;38.80;;;;;;5053222;28;20104;-68
2022/01/25 12:45:30;;;;;;;31.50;18.40;;;21.20;38.90;;;;;;5066486;28;20115;-68
2022/01/25 12:48:03;;;;;;;32.05;18.35;;;21.20;38.90;;;;;;5063187;28;20044;-68
2022/01/25 12:50:30;;;;;;;32.97;19.70;;;21.20;38.80;;;;;;5060656;28;20025;-65
2022/01/25 12:53:01;;;;;;;34.55;19.45;;;21.10;39.00;;;;;;5064146;28;20029;-65
2022/01/25 12:55:33;;;;;;;33.17;18.67;;;21.10;38.90;;;;;;5069994;28;20032;-65
2022/01/25 12:57:59;;;;;;;35.17;18.98;;;21.10;39.00;;;;;;5061678;28;20645;-66
2022/01/25 13:00:33;;;;;;;32.90;18.88;;;21.10;39.00;;;;;;5053638;28;20086;-65
2022/01/25 13:03:16;;;;;;;33.03;19.38;;;21.00;38.90;;;;;;5059975;28;20028;-65
2022/01/25 13:05:43;;;;;;;;;;;21.10;38.90;;;;;;5070173;28;20028;-65
2022/01/25 13:08:20;;;;;;;34.83;19.10;;;21.00;39.00;;;;;;5071855;28;19919;-65
2022/01/25 13:10:48;;;;;;;32.65;18.25;;;20.90;39.30;;;;;;5059085;28;20384;-65
2022/01/25 13:13:23;;;;;;;33.63;19.38;;;20.90;39.40;;;;;;5071008;28;20448;-65
2022/01/25 13:18:15;;;;;;;36.20;19.50;;;20.90;39.40;;;;;;5068185;28;20132;-66
2022/01/25 13:20:43;;;;;;;33.22;19.20;;;20.80;39.30;;;;;;5056728;28;20025;-65
2022/01/25 13:23:11;;;;;;;34.47;19.38;;;20.80;39.30;;;;;;5063771;28;20029;-65
2022/01/25 13:26:06;;;;;;;33.95;19.83;;;20.80;39.40;;;;;;5054995;28;20021;-65
2022/01/25 13:28:36;;;;;;;34.35;18.95;;;20.80;39.40;;;;;;5069781;28;20028;-67
2022/01/25 13:31:11;;;;;;;33.92;19.63;;;20.80;39.40;;;;;;5063518;28;20079;-68
2022/01/25 13:33:38;;;;;;;33.08;19.20;;;20.80;39.40;;;;;;5057575;28;20094;-68
2022/01/25 13:36:04;;;;;;;32.65;18.55;;;20.70;39.40;;;;;;5062236;28;20056;-68
2022/01/25 13:38:34;;;;;;;33.50;19.25;;;20.80;39.40;;;;;;5061183;28;20028;-68
2022/01/25 13:41:19;;;;;;;35.53;19.58;;;20.70;40.30;;;;;;5070424;28;20024;-68
2022/01/25 13:46:30;;;;;;;35.35;19.80;;;20.70;39.40;;;;;;5060070;28;20025;-68
2022/01/25 13:48:59;;;;;;;35.33;19.38;;;20.70;39.40;;;;;;5065679;28;20144;-68
2022/01/25 13:51:28;;;;;;;34.58;19.15;;;20.70;39.50;;;;;;5075007;28;20017;-65
2022/01/25 13:53:59;;;;;;;32.70;19.42;;;20.70;39.40;;;;;;5074776;28;20103;-65
2022/01/25 13:56:28;;;;;;;33.15;19.00;;;20.70;39.40;;;;;;5074031;28;20033;-65
2022/01/25 13:58:54;;;;;;;34.55;19.20;;;20.60;39.40;;;;;;5074767;28;20051;-65
2022/01/25 14:01:23;;;;;;;35.83;19.65;;;20.60;39.40;;;;;;5068654;28;20137;-68
2022/01/25 14:04:08;;;;;;;35.20;19.90;;;20.60;39.50;;;;;;5073453;28;20099;-68
2022/01/25 14:06:43;;;;;;;34.70;18.98;;;20.60;39.40;;;;;;5073136;28;20035;-65
2022/01/25 14:09:19;;;;;;;36.72;19.95;;;20.50;40.50;;;;;;5071977;28;20476;-65
2022/01/25 14:23:19;;;;;;;36.55;19.80;;;20.50;39.70;;;;;;5055402;28;20444;-65
2022/01/25 14:25:33;;;;;;;35.13;19.80;;;20.40;39.50;;;;;;5061161;28;20043;-68
2022/01/25 14:28:02;;;;;;;37.90;19.95;;;20.50;39.70;;;;;;5069238;28;20040;-68
2022/01/25 14:30:37;;;;;;;33.45;18.45;;;20.40;39.60;;;;;;5068862;28;20385;-68
2022/01/25 14:33:11;;;;;;;33.97;18.65;;;20.40;39.50;;;;;;5040387;28;20549;-68
2022/01/25 14:35:49;;;;;;;33.80;18.73;;;20.40;39.60;;;;;;5073677;28;20028;-65
2022/01/25 14:38:20;;;;;;;33.33;17.80;;;20.40;39.60;;;;;;5065059;28;20028;-68
2022/01/25 14:40:59;;;;;;;34.10;18.65;;;20.40;39.70;;;;;;5068132;28;20091;-68